Vremea acum in Curtea De Arges - Romania

Vrei sa afli care e starea vremii acum in Valcea - Romania? Dorim sa iti furnizam starea vremii pentru Valcea - Romania. Starea vremii Valcea - Romania pentru astazi.

Vremea acum in Curtea De Arges

Temperatura: 0 °C

Se simte ca: 0 °C
Innorat: 75 %
Precipitatii: 0 %
Presiune atmosferica: 1006 hPa
Umiditate: 93%
Vizibilitate: 9 km
Vantul bate din NNW cu 0 km/h

Evolutia vremii in Curtea De Arges pe ore

Ora: 07:00
Parțial noros
Temperatura: 1.1°C
Sansa de precipitatii: 0%
Ora Descriere Temp Se simte Precipitatii Umiditate Vant
00:00Parțial noros0.9°0.4°0%85%NNW 3.6 KM/H
01:00Parțial noros1.3°0.2°0%84%NNW 4.7 KM/H
02:00Parțial noros1.6°0%83%NNW 5.4 KM/H
03:00Parțial noros1.4°-0.1°0%82%NNW 5.4 KM/H
04:00Parțial noros1.3°-0.3°0%82%NNW 5 KM/H
05:00Parțial noros1.1°-0.4°0%82%NNW 5 KM/H
06:00Parțial noros1.1°-0.4°0%81%SW 5 KM/H
07:00Parțial noros1.1°-0.4°0%80%ESE 5 KM/H
08:00Parțial noros1.1°-0.4°0%80%N 5 KM/H
09:00Parțial noros2.8°1.8°0%74%ESE 4.3 KM/H
10:00Parțial noros4.4°3.9°0%68%WSW 3.2 KM/H
11:00Parțial noros6.1°6.1°0%62%N 2.5 KM/H
12:00Parțial noros6.3°6.1°0%62%NW 3.6 KM/H
13:00Parțial noros6.6°0%61%W 4.3 KM/H
14:00Parțial noros6.8°0%61%SW 5.4 KM/H
15:00Parțial noros5.6°4.7°0%66%W 5 KM/H
16:00Parțial noros4.3°3.4°0%71%WNW 5 KM/H
17:00Parțial noros3.1°2.1°0%77%NNW 4.7 KM/H
18:00Parțial noros2.6°1.1°0%77%SW 5.8 KM/H
19:00Parțial noros2.2°0.2°0%77%ESE 7.2 KM/H
20:00Parțial noros1.7°-0.8°0%78%N 8.3 KM/H
21:00Parțial noros1.4°-1.2°0%76%N 8.3 KM/H
22:00Parțial noros1.1°-1.5°0%75%N 8.3 KM/H
23:00Parțial noros0.8°-1.9°0%74%N 8.3 KM/H